sensor_id;sensor_type;location;lat;lon;timestamp;temperature;humidity
42479;DHT22;28110;47.080;9.476;2023-09-12T00:01:04;22.70;99.90
42479;DHT22;28110;47.080;9.476;2023-09-12T00:03:33;22.70;99.90
42479;DHT22;28110;47.080;9.476;2023-09-12T00:06:00;22.60;99.90
42479;DHT22;28110;47.080;9.476;2023-09-12T00:08:26;22.50;99.90
42479;DHT22;28110;47.080;9.476;2023-09-12T00:11:04;22.50;99.90
42479;DHT22;28110;47.080;9.476;2023-09-12T00:13:31;22.50;99.90
42479;DHT22;28110;47.080;9.476;2023-09-12T00:15:57;22.50;99.90
42479;DHT22;28110;47.080;9.476;2023-09-12T00:18:23;22.50;99.90
42479;DHT22;28110;47.080;9.476;2023-09-12T00:20:50;22.40;99.90
42479;DHT22;28110;47.080;9.476;2023-09-12T00:23:16;22.40;99.90
42479;DHT22;28110;47.080;9.476;2023-09-12T00:25:41;22.30;99.90
42479;DHT22;28110;47.080;9.476;2023-09-12T00:28:07;22.30;99.90
42479;DHT22;28110;47.080;9.476;2023-09-12T00:30:32;22.30;99.90
42479;DHT22;28110;47.080;9.476;2023-09-12T00:32:58;22.20;99.90
42479;DHT22;28110;47.080;9.476;2023-09-12T00:35:23;22.10;99.90
42479;DHT22;28110;47.080;9.476;2023-09-12T00:37:49;22.10;99.90
42479;DHT22;28110;47.080;9.476;2023-09-12T00:40:14;22.10;99.90
42479;DHT22;28110;47.080;9.476;2023-09-12T00:42:40;22.10;99.90
42479;DHT22;28110;47.080;9.476;2023-09-12T00:45:06;22.20;99.90
42479;DHT22;28110;47.080;9.476;2023-09-12T00:47:32;22.10;99.90
42479;DHT22;28110;47.080;9.476;2023-09-12T00:49:59;22.10;99.90
42479;DHT22;28110;47.080;9.476;2023-09-12T00:52:25;22.10;99.90
42479;DHT22;28110;47.080;9.476;2023-09-12T00:54:52;22.00;99.90
42479;DHT22;28110;47.080;9.476;2023-09-12T00:57:18;22.00;99.90
42479;DHT22;28110;47.080;9.476;2023-09-12T00:59:44;21.90;99.90
42479;DHT22;28110;47.080;9.476;2023-09-12T01:02:10;22.00;99.90
42479;DHT22;28110;47.080;9.476;2023-09-12T01:04:36;21.90;99.90
42479;DHT22;28110;47.080;9.476;2023-09-12T01:07:05;22.00;99.90
42479;DHT22;28110;47.080;9.476;2023-09-12T01:09:32;22.10;99.90
42479;DHT22;28110;47.080;9.476;2023-09-12T01:11:59;22.20;99.90
42479;DHT22;28110;47.080;9.476;2023-09-12T01:14:25;22.20;99.90
42479;DHT22;28110;47.080;9.476;2023-09-12T01:16:50;22.10;99.90
42479;DHT22;28110;47.080;9.476;2023-09-12T01:19:16;22.20;99.90
42479;DHT22;28110;47.080;9.476;2023-09-12T01:24:26;22.10;99.90
42479;DHT22;28110;47.080;9.476;2023-09-12T01:29:43;22.10;99.90
42479;DHT22;28110;47.080;9.476;2023-09-12T01:32:11;22.00;99.90
42479;DHT22;28110;47.080;9.476;2023-09-12T01:34:37;22.00;99.90
42479;DHT22;28110;47.080;9.476;2023-09-12T01:37:03;22.00;99.90
42479;DHT22;28110;47.080;9.476;2023-09-12T01:39:28;22.00;99.90
42479;DHT22;28110;47.080;9.476;2023-09-12T01:41:54;21.90;99.90
42479;DHT22;28110;47.080;9.476;2023-09-12T01:44:24;21.90;99.90
42479;DHT22;28110;47.080;9.476;2023-09-12T01:46:51;21.90;99.90
42479;DHT22;28110;47.080;9.476;2023-09-12T01:49:20;21.80;99.90
42479;DHT22;28110;47.080;9.476;2023-09-12T01:51:46;21.70;99.90
42479;DHT22;28110;47.080;9.476;2023-09-12T01:54:12;21.60;99.90
42479;DHT22;28110;47.080;9.476;2023-09-12T01:56:39;21.50;99.90
42479;DHT22;28110;47.080;9.476;2023-09-12T01:59:05;21.40;99.90
42479;DHT22;28110;47.080;9.476;2023-09-12T02:01:31;21.30;99.90
42479;DHT22;28110;47.080;9.476;2023-09-12T02:03:57;21.30;99.90
42479;DHT22;28110;47.080;9.476;2023-09-12T02:06:23;21.20;99.90
42479;DHT22;28110;47.080;9.476;2023-09-12T02:08:48;21.20;99.90
42479;DHT22;28110;47.080;9.476;2023-09-12T02:11:14;21.20;99.90
42479;DHT22;28110;47.080;9.476;2023-09-12T02:13:40;21.20;99.90
42479;DHT22;28110;47.080;9.476;2023-09-12T02:16:05;21.20;99.90
42479;DHT22;28110;47.080;9.476;2023-09-12T02:18:31;21.30;99.90
42479;DHT22;28110;47.080;9.476;2023-09-12T02:20:58;21.40;99.90
42479;DHT22;28110;47.080;9.476;2023-09-12T02:23:24;21.40;99.90
42479;DHT22;28110;47.080;9.476;2023-09-12T02:25:49;21.40;99.90
42479;DHT22;28110;47.080;9.476;2023-09-12T02:28:15;21.40;99.90
42479;DHT22;28110;47.080;9.476;2023-09-12T02:30:40;21.40;99.90
42479;DHT22;28110;47.080;9.476;2023-09-12T02:33:06;21.40;99.90
42479;DHT22;28110;47.080;9.476;2023-09-12T02:35:31;21.30;99.90
42479;DHT22;28110;47.080;9.476;2023-09-12T02:37:57;21.20;99.90
42479;DHT22;28110;47.080;9.476;2023-09-12T02:40:23;21.20;99.90
42479;DHT22;28110;47.080;9.476;2023-09-12T02:42:48;21.10;99.90
42479;DHT22;28110;47.080;9.476;2023-09-12T02:45:14;21.10;99.90
42479;DHT22;28110;47.080;9.476;2023-09-12T02:47:39;21.10;99.90
42479;DHT22;28110;47.080;9.476;2023-09-12T02:50:05;21.10;99.90
42479;DHT22;28110;47.080;9.476;2023-09-12T02:52:31;21.00;99.90
42479;DHT22;28110;47.080;9.476;2023-09-12T02:54:57;21.00;99.90
42479;DHT22;28110;47.080;9.476;2023-09-12T02:57:22;21.00;99.90
42479;DHT22;28110;47.080;9.476;2023-09-12T02:59:48;20.90;99.90
42479;DHT22;28110;47.080;9.476;2023-09-12T03:02:13;21.00;99.90
42479;DHT22;28110;47.080;9.476;2023-09-12T03:04:39;20.90;99.90
42479;DHT22;28110;47.080;9.476;2023-09-12T03:07:04;20.90;99.90
42479;DHT22;28110;47.080;9.476;2023-09-12T03:09:30;20.90;99.90
42479;DHT22;28110;47.080;9.476;2023-09-12T03:11:55;20.90;99.90
42479;DHT22;28110;47.080;9.476;2023-09-12T03:14:21;20.90;99.90
42479;DHT22;28110;47.080;9.476;2023-09-12T03:16:46;20.90;99.90
42479;DHT22;28110;47.080;9.476;2023-09-12T03:19:12;21.00;99.90
42479;DHT22;28110;47.080;9.476;2023-09-12T03:21:37;21.10;99.90
42479;DHT22;28110;47.080;9.476;2023-09-12T03:24:04;21.10;99.90
42479;DHT22;28110;47.080;9.476;2023-09-12T03:26:29;21.10;99.90
42479;DHT22;28110;47.080;9.476;2023-09-12T03:28:55;21.30;99.90
42479;DHT22;28110;47.080;9.476;2023-09-12T03:31:20;21.20;99.90
42479;DHT22;28110;47.080;9.476;2023-09-12T03:33:46;21.20;99.90
42479;DHT22;28110;47.080;9.476;2023-09-12T03:36:15;21.20;99.90
42479;DHT22;28110;47.080;9.476;2023-09-12T03:38:41;21.10;99.90
42479;DHT22;28110;47.080;9.476;2023-09-12T03:41:06;21.10;99.90
42479;DHT22;28110;47.080;9.476;2023-09-12T03:43:33;21.10;99.90
42479;DHT22;28110;47.080;9.476;2023-09-12T03:45:59;21.00;99.90
42479;DHT22;28110;47.080;9.476;2023-09-12T03:48:25;20.90;99.90
42479;DHT22;28110;47.080;9.476;2023-09-12T03:50:50;20.90;99.90
42479;DHT22;28110;47.080;9.476;2023-09-12T03:53:16;20.90;99.90
42479;DHT22;28110;47.080;9.476;2023-09-12T03:55:42;20.80;99.90
42479;DHT22;28110;47.080;9.476;2023-09-12T03:58:07;20.70;99.90
42479;DHT22;28110;47.080;9.476;2023-09-12T04:00:33;20.80;99.90
42479;DHT22;28110;47.080;9.476;2023-09-12T04:02:58;20.70;99.90
42479;DHT22;28110;47.080;9.476;2023-09-12T04:05:25;20.80;99.90
42479;DHT22;28110;47.080;9.476;2023-09-12T04:07:51;20.80;99.90
42479;DHT22;28110;47.080;9.476;2023-09-12T04:10:18;20.80;99.90
42479;DHT22;28110;47.080;9.476;2023-09-12T04:12:44;20.70;99.90
42479;DHT22;28110;47.080;9.476;2023-09-12T04:15:09;20.70;99.90
42479;DHT22;28110;47.080;9.476;2023-09-12T04:17:35;20.70;99.90
42479;DHT22;28110;47.080;9.476;2023-09-12T04:20:00;20.70;99.90
42479;DHT22;28110;47.080;9.476;2023-09-12T04:22:26;20.70;99.90
42479;DHT22;28110;47.080;9.476;2023-09-12T04:24:51;20.60;99.90
42479;DHT22;28110;47.080;9.476;2023-09-12T04:27:17;20.50;99.90
42479;DHT22;28110;47.080;9.476;2023-09-12T04:29:42;20.40;99.90
42479;DHT22;28110;47.080;9.476;2023-09-12T04:32:08;20.40;99.90
42479;DHT22;28110;47.080;9.476;2023-09-12T04:34:34;20.40;99.90
42479;DHT22;28110;47.080;9.476;2023-09-12T04:37:00;20.30;99.90
42479;DHT22;28110;47.080;9.476;2023-09-12T04:39:28;20.40;99.90
42479;DHT22;28110;47.080;9.476;2023-09-12T04:41:53;20.30;99.90
42479;DHT22;28110;47.080;9.476;2023-09-12T04:44:19;20.20;99.90
42479;DHT22;28110;47.080;9.476;2023-09-12T04:46:44;20.20;99.90
42479;DHT22;28110;47.080;9.476;2023-09-12T04:49:10;20.20;99.90
42479;DHT22;28110;47.080;9.476;2023-09-12T04:51:35;20.30;99.90
42479;DHT22;28110;47.080;9.476;2023-09-12T04:54:01;20.30;99.90
42479;DHT22;28110;47.080;9.476;2023-09-12T04:56:27;20.30;99.90
42479;DHT22;28110;47.080;9.476;2023-09-12T04:58:52;20.40;99.90
42479;DHT22;28110;47.080;9.476;2023-09-12T05:01:18;20.50;99.90
42479;DHT22;28110;47.080;9.476;2023-09-12T05:03:44;20.60;99.90
42479;DHT22;28110;47.080;9.476;2023-09-12T05:06:10;20.70;99.90
42479;DHT22;28110;47.080;9.476;2023-09-12T05:08:36;20.70;99.90
42479;DHT22;28110;47.080;9.476;2023-09-12T05:11:01;20.70;99.90
42479;DHT22;28110;47.080;9.476;2023-09-12T05:13:28;20.70;99.90
42479;DHT22;28110;47.080;9.476;2023-09-12T05:15:54;20.70;99.90
42479;DHT22;28110;47.080;9.476;2023-09-12T05:18:19;20.60;99.90
42479;DHT22;28110;47.080;9.476;2023-09-12T05:20:45;20.50;99.90
42479;DHT22;28110;47.080;9.476;2023-09-12T05:23:10;20.50;99.90
42479;DHT22;28110;47.080;9.476;2023-09-12T05:25:36;20.50;99.90
42479;DHT22;28110;47.080;9.476;2023-09-12T05:28:01;20.60;99.90
42479;DHT22;28110;47.080;9.476;2023-09-12T05:30:28;20.60;99.90
42479;DHT22;28110;47.080;9.476;2023-09-12T05:32:53;20.70;99.90
42479;DHT22;28110;47.080;9.476;2023-09-12T05:35:19;20.80;99.90
42479;DHT22;28110;47.080;9.476;2023-09-12T05:37:44;20.80;99.90
42479;DHT22;28110;47.080;9.476;2023-09-12T05:40:10;20.80;99.90
42479;DHT22;28110;47.080;9.476;2023-09-12T05:42:36;20.70;99.90
42479;DHT22;28110;47.080;9.476;2023-09-12T05:45:02;20.80;99.90
42479;DHT22;28110;47.080;9.476;2023-09-12T05:47:27;20.80;99.90
42479;DHT22;28110;47.080;9.476;2023-09-12T05:49:53;20.80;99.90
42479;DHT22;28110;47.080;9.476;2023-09-12T05:52:19;20.80;99.90
42479;DHT22;28110;47.080;9.476;2023-09-12T05:54:44;20.80;99.90
42479;DHT22;28110;47.080;9.476;2023-09-12T05:57:10;20.80;99.90
42479;DHT22;28110;47.080;9.476;2023-09-12T05:59:37;20.90;99.90
42479;DHT22;28110;47.080;9.476;2023-09-12T06:02:04;21.00;99.90
42479;DHT22;28110;47.080;9.476;2023-09-12T06:04:31;21.00;99.90
42479;DHT22;28110;47.080;9.476;2023-09-12T06:06:57;21.10;99.90
42479;DHT22;28110;47.080;9.476;2023-09-12T06:09:22;21.10;99.90
42479;DHT22;28110;47.080;9.476;2023-09-12T06:11:48;21.10;99.90
42479;DHT22;28110;47.080;9.476;2023-09-12T06:14:14;21.10;99.90
42479;DHT22;28110;47.080;9.476;2023-09-12T06:16:39;21.20;99.90
42479;DHT22;28110;47.080;9.476;2023-09-12T06:19:05;21.10;99.90
42479;DHT22;28110;47.080;9.476;2023-09-12T06:21:30;21.10;99.90
42479;DHT22;28110;47.080;9.476;2023-09-12T06:24:15;21.10;99.90
42479;DHT22;28110;47.080;9.476;2023-09-12T06:26:42;21.10;99.90
42479;DHT22;28110;47.080;9.476;2023-09-12T06:29:07;21.00;99.90
42479;DHT22;28110;47.080;9.476;2023-09-12T06:31:33;21.00;99.90
42479;DHT22;28110;47.080;9.476;2023-09-12T06:33:59;21.00;99.90
42479;DHT22;28110;47.080;9.476;2023-09-12T06:36:25;21.10;99.90
42479;DHT22;28110;47.080;9.476;2023-09-12T06:38:51;21.10;99.90
42479;DHT22;28110;47.080;9.476;2023-09-12T06:41:19;21.20;99.90
42479;DHT22;28110;47.080;9.476;2023-09-12T06:43:45;21.20;99.90
42479;DHT22;28110;47.080;9.476;2023-09-12T06:46:10;21.30;99.90
42479;DHT22;28110;47.080;9.476;2023-09-12T06:48:36;21.30;99.90
42479;DHT22;28110;47.080;9.476;2023-09-12T06:51:05;21.30;99.90
42479;DHT22;28110;47.080;9.476;2023-09-12T06:53:30;21.40;99.90
42479;DHT22;28110;47.080;9.476;2023-09-12T06:55:56;21.40;99.90
42479;DHT22;28110;47.080;9.476;2023-09-12T06:58:23;21.40;99.90
42479;DHT22;28110;47.080;9.476;2023-09-12T07:00:49;21.40;99.90
42479;DHT22;28110;47.080;9.476;2023-09-12T07:03:14;21.30;99.90
42479;DHT22;28110;47.080;9.476;2023-09-12T07:05:41;21.30;99.90
42479;DHT22;28110;47.080;9.476;2023-09-12T07:08:06;21.30;99.90
42479;DHT22;28110;47.080;9.476;2023-09-12T07:10:32;21.30;99.90
42479;DHT22;28110;47.080;9.476;2023-09-12T07:12:58;21.40;99.90
42479;DHT22;28110;47.080;9.476;2023-09-12T07:15:23;21.50;99.90
42479;DHT22;28110;47.080;9.476;2023-09-12T07:17:49;21.60;99.90
42479;DHT22;28110;47.080;9.476;2023-09-12T07:20:14;21.60;99.90
42479;DHT22;28110;47.080;9.476;2023-09-12T07:22:41;21.70;99.90
42479;DHT22;28110;47.080;9.476;2023-09-12T07:25:07;21.90;99.90
42479;DHT22;28110;47.080;9.476;2023-09-12T07:27:34;22.00;99.90
42479;DHT22;28110;47.080;9.476;2023-09-12T07:30:00;22.10;99.90
42479;DHT22;28110;47.080;9.476;2023-09-12T07:32:25;22.30;99.90
42479;DHT22;28110;47.080;9.476;2023-09-12T07:34:52;22.40;99.90
42479;DHT22;28110;47.080;9.476;2023-09-12T07:37:17;22.50;99.90
42479;DHT22;28110;47.080;9.476;2023-09-12T07:39:43;22.60;99.90
42479;DHT22;28110;47.080;9.476;2023-09-12T07:42:09;22.60;99.90
42479;DHT22;28110;47.080;9.476;2023-09-12T07:44:34;22.70;99.90
42479;DHT22;28110;47.080;9.476;2023-09-12T07:47:00;22.70;99.90
42479;DHT22;28110;47.080;9.476;2023-09-12T07:49:26;22.70;99.90
42479;DHT22;28110;47.080;9.476;2023-09-12T07:51:52;22.70;99.90
42479;DHT22;28110;47.080;9.476;2023-09-12T07:54:17;22.70;99.90
42479;DHT22;28110;47.080;9.476;2023-09-12T07:56:43;22.80;99.90
42479;DHT22;28110;47.080;9.476;2023-09-12T07:59:09;22.90;99.90
42479;DHT22;28110;47.080;9.476;2023-09-12T08:01:35;22.90;99.90
42479;DHT22;28110;47.080;9.476;2023-09-12T08:04:01;22.90;99.90
42479;DHT22;28110;47.080;9.476;2023-09-12T08:06:26;23.00;99.90
42479;DHT22;28110;47.080;9.476;2023-09-12T08:08:52;23.00;99.90
42479;DHT22;28110;47.080;9.476;2023-09-12T08:11:18;23.00;99.90
42479;DHT22;28110;47.080;9.476;2023-09-12T08:13:45;23.10;99.90
42479;DHT22;28110;47.080;9.476;2023-09-12T08:16:11;23.10;99.90
42479;DHT22;28110;47.080;9.476;2023-09-12T08:18:36;23.20;99.90
42479;DHT22;28110;47.080;9.476;2023-09-12T08:21:02;23.20;99.90
42479;DHT22;28110;47.080;9.476;2023-09-12T08:23:28;23.20;99.90
42479;DHT22;28110;47.080;9.476;2023-09-12T08:25:53;23.40;99.90
42479;DHT22;28110;47.080;9.476;2023-09-12T08:28:19;23.40;99.90
42479;DHT22;28110;47.080;9.476;2023-09-12T08:30:45;23.40;99.90
42479;DHT22;28110;47.080;9.476;2023-09-12T08:33:11;23.40;99.70
42479;DHT22;28110;47.080;9.476;2023-09-12T08:35:37;23.50;99.60
42479;DHT22;28110;47.080;9.476;2023-09-12T08:38:02;23.50;99.90
42479;DHT22;28110;47.080;9.476;2023-09-12T08:40:28;23.60;99.90
42479;DHT22;28110;47.080;9.476;2023-09-12T08:42:57;23.70;99.90
42479;DHT22;28110;47.080;9.476;2023-09-12T08:45:22;23.90;99.90
42479;DHT22;28110;47.080;9.476;2023-09-12T08:47:53;24.00;99.80
42479;DHT22;28110;47.080;9.476;2023-09-12T08:50:20;24.10;99.60
42479;DHT22;28110;47.080;9.476;2023-09-12T08:52:46;24.00;99.60
42479;DHT22;28110;47.080;9.476;2023-09-12T08:55:12;23.90;99.50
42479;DHT22;28110;47.080;9.476;2023-09-12T08:57:40;24.00;98.60
42479;DHT22;28110;47.080;9.476;2023-09-12T09:00:06;23.90;98.10
42479;DHT22;28110;47.080;9.476;2023-09-12T09:02:37;24.00;98.30
42479;DHT22;28110;47.080;9.476;2023-09-12T09:05:04;24.10;98.40
42479;DHT22;28110;47.080;9.476;2023-09-12T09:07:33;24.10;98.10
42479;DHT22;28110;47.080;9.476;2023-09-12T09:10:02;24.20;99.00
42479;DHT22;28110;47.080;9.476;2023-09-12T09:12:28;24.30;98.00
42479;DHT22;28110;47.080;9.476;2023-09-12T09:14:54;24.50;98.40
42479;DHT22;28110;47.080;9.476;2023-09-12T09:17:19;24.60;98.60
42479;DHT22;28110;47.080;9.476;2023-09-12T09:19:45;24.70;97.90
42479;DHT22;28110;47.080;9.476;2023-09-12T09:22:11;24.90;97.70
42479;DHT22;28110;47.080;9.476;2023-09-12T09:24:37;25.00;97.90
42479;DHT22;28110;47.080;9.476;2023-09-12T09:27:02;25.20;97.90
42479;DHT22;28110;47.080;9.476;2023-09-12T09:29:29;25.30;98.10
42479;DHT22;28110;47.080;9.476;2023-09-12T09:32:00;25.50;97.00
42479;DHT22;28110;47.080;9.476;2023-09-12T09:34:26;25.70;97.80
42479;DHT22;28110;47.080;9.476;2023-09-12T09:36:57;25.90;96.50
42479;DHT22;28110;47.080;9.476;2023-09-12T09:39:24;26.00;97.80
42479;DHT22;28110;47.080;9.476;2023-09-12T09:41:51;26.20;96.10
42479;DHT22;28110;47.080;9.476;2023-09-12T09:44:18;26.30;96.20
42479;DHT22;28110;47.080;9.476;2023-09-12T09:46:45;26.50;96.80
42479;DHT22;28110;47.080;9.476;2023-09-12T09:49:14;26.60;96.70
42479;DHT22;28110;47.080;9.476;2023-09-12T09:51:42;26.70;96.90
42479;DHT22;28110;47.080;9.476;2023-09-12T09:54:12;26.90;96.40
42479;DHT22;28110;47.080;9.476;2023-09-12T09:56:54;27.00;97.20
42479;DHT22;28110;47.080;9.476;2023-09-12T09:59:29;27.10;96.30
42479;DHT22;28110;47.080;9.476;2023-09-12T10:01:59;27.10;95.90
42479;DHT22;28110;47.080;9.476;2023-09-12T10:04:27;27.30;96.80
42479;DHT22;28110;47.080;9.476;2023-09-12T10:06:55;27.30;96.10
42479;DHT22;28110;47.080;9.476;2023-09-12T10:09:23;27.30;96.40
42479;DHT22;28110;47.080;9.476;2023-09-12T10:11:51;27.40;95.80
42479;DHT22;28110;47.080;9.476;2023-09-12T10:14:19;27.40;96.40
42479;DHT22;28110;47.080;9.476;2023-09-12T10:16:47;27.50;96.90
42479;DHT22;28110;47.080;9.476;2023-09-12T10:19:23;27.50;96.50
42479;DHT22;28110;47.080;9.476;2023-09-12T10:21:54;27.50;96.40
42479;DHT22;28110;47.080;9.476;2023-09-12T10:24:25;27.50;96.10
42479;DHT22;28110;47.080;9.476;2023-09-12T10:26:53;27.50;97.10
42479;DHT22;28110;47.080;9.476;2023-09-12T10:29:20;27.60;96.60
42479;DHT22;28110;47.080;9.476;2023-09-12T10:31:48;27.60;95.90
42479;DHT22;28110;47.080;9.476;2023-09-12T10:34:14;27.60;95.80
42479;DHT22;28110;47.080;9.476;2023-09-12T10:36:41;27.70;94.90
42479;DHT22;28110;47.080;9.476;2023-09-12T10:39:09;27.70;95.10
42479;DHT22;28110;47.080;9.476;2023-09-12T10:41:37;27.80;94.60
42479;DHT22;28110;47.080;9.476;2023-09-12T10:44:08;27.90;95.20
42479;DHT22;28110;47.080;9.476;2023-09-12T10:46:39;27.90;94.70
42479;DHT22;28110;47.080;9.476;2023-09-12T10:49:09;28.00;95.20
42479;DHT22;28110;47.080;9.476;2023-09-12T10:51:40;27.90;95.10
42479;DHT22;28110;47.080;9.476;2023-09-12T10:54:07;27.90;93.60
42479;DHT22;28110;47.080;9.476;2023-09-12T10:56:37;27.90;94.30
42479;DHT22;28110;47.080;9.476;2023-09-12T11:01:39;27.90;94.30
42479;DHT22;28110;47.080;9.476;2023-09-12T11:06:54;28.00;95.60
42479;DHT22;28110;47.080;9.476;2023-09-12T11:09:24;28.00;95.30
42479;DHT22;28110;47.080;9.476;2023-09-12T11:12:01;28.00;95.60
42479;DHT22;28110;47.080;9.476;2023-09-12T11:14:28;28.00;96.00
42479;DHT22;28110;47.080;9.476;2023-09-12T11:19:44;28.00;96.60
42479;DHT22;28110;47.080;9.476;2023-09-12T11:22:28;28.00;96.00
42479;DHT22;28110;47.080;9.476;2023-09-12T11:24:54;27.90;96.90
42479;DHT22;28110;47.080;9.476;2023-09-12T11:27:32;27.90;96.30
42479;DHT22;28110;47.080;9.476;2023-09-12T11:30:07;27.90;96.10
42479;DHT22;28110;47.080;9.476;2023-09-12T11:32:35;27.90;95.90
42479;DHT22;28110;47.080;9.476;2023-09-12T11:35:08;27.90;96.50
42479;DHT22;28110;47.080;9.476;2023-09-12T11:37:34;28.00;98.00
42479;DHT22;28110;47.080;9.476;2023-09-12T11:42:40;28.00;97.40
42479;DHT22;28110;47.080;9.476;2023-09-12T11:45:10;28.00;98.50
42479;DHT22;28110;47.080;9.476;2023-09-12T11:47:46;28.00;98.90
42479;DHT22;28110;47.080;9.476;2023-09-12T11:50:34;28.00;97.90
42479;DHT22;28110;47.080;9.476;2023-09-12T11:53:12;28.00;98.10
42479;DHT22;28110;47.080;9.476;2023-09-12T11:55:46;28.00;98.50
42479;DHT22;28110;47.080;9.476;2023-09-12T11:58:16;28.00;97.20
42479;DHT22;28110;47.080;9.476;2023-09-12T12:00:52;28.00;96.80
42479;DHT22;28110;47.080;9.476;2023-09-12T12:03:20;27.90;97.20
42479;DHT22;28110;47.080;9.476;2023-09-12T12:05:47;27.90;97.20
42479;DHT22;28110;47.080;9.476;2023-09-12T12:08:13;27.90;97.10
42479;DHT22;28110;47.080;9.476;2023-09-12T12:10:39;27.90;97.50
42479;DHT22;28110;47.080;9.476;2023-09-12T12:13:10;27.90;97.50
42479;DHT22;28110;47.080;9.476;2023-09-12T12:15:36;27.90;97.80
42479;DHT22;28110;47.080;9.476;2023-09-12T12:18:02;27.90;97.50
42479;DHT22;28110;47.080;9.476;2023-09-12T12:20:27;27.90;97.90
42479;DHT22;28110;47.080;9.476;2023-09-12T12:22:55;27.80;98.20
42479;DHT22;28110;47.080;9.476;2023-09-12T12:25:21;27.80;98.50
42479;DHT22;28110;47.080;9.476;2023-09-12T12:27:47;27.70;98.30
42479;DHT22;28110;47.080;9.476;2023-09-12T12:30:14;27.70;98.60
42479;DHT22;28110;47.080;9.476;2023-09-12T12:32:44;27.70;98.90
42479;DHT22;28110;47.080;9.476;2023-09-12T12:35:20;27.60;99.20
42479;DHT22;28110;47.080;9.476;2023-09-12T12:37:48;27.60;99.10
42479;DHT22;28110;47.080;9.476;2023-09-12T12:40:14;27.60;98.70
42479;DHT22;28110;47.080;9.476;2023-09-12T12:42:41;27.50;98.60
42479;DHT22;28110;47.080;9.476;2023-09-12T12:45:16;27.50;98.20
42479;DHT22;28110;47.080;9.476;2023-09-12T12:47:42;27.50;98.50
42479;DHT22;28110;47.080;9.476;2023-09-12T12:50:14;27.40;99.80
42479;DHT22;28110;47.080;9.476;2023-09-12T12:52:40;27.40;99.90
42479;DHT22;28110;47.080;9.476;2023-09-12T12:55:10;27.40;99.90
42479;DHT22;28110;47.080;9.476;2023-09-12T12:57:37;27.30;99.90
42479;DHT22;28110;47.080;9.476;2023-09-12T13:00:08;27.20;99.90
42479;DHT22;28110;47.080;9.476;2023-09-12T13:02:39;27.20;99.90
42479;DHT22;28110;47.080;9.476;2023-09-12T13:05:18;27.10;99.90
42479;DHT22;28110;47.080;9.476;2023-09-12T13:07:44;27.00;99.90
42479;DHT22;28110;47.080;9.476;2023-09-12T13:10:09;27.00;99.90
42479;DHT22;28110;47.080;9.476;2023-09-12T13:12:35;26.90;99.90
42479;DHT22;28110;47.080;9.476;2023-09-12T13:15:01;26.80;99.90
42479;DHT22;28110;47.080;9.476;2023-09-12T13:17:27;26.70;99.90
42479;DHT22;28110;47.080;9.476;2023-09-12T13:19:52;26.60;99.90
42479;DHT22;28110;47.080;9.476;2023-09-12T13:22:18;26.50;99.90
42479;DHT22;28110;47.080;9.476;2023-09-12T13:24:43;26.40;99.90
42479;DHT22;28110;47.080;9.476;2023-09-12T13:27:09;26.30;99.90
42479;DHT22;28110;47.080;9.476;2023-09-12T13:29:34;26.20;99.90
42479;DHT22;28110;47.080;9.476;2023-09-12T13:32:00;26.00;99.90
42479;DHT22;28110;47.080;9.476;2023-09-12T13:34:25;25.90;99.90
42479;DHT22;28110;47.080;9.476;2023-09-12T13:36:51;25.80;99.90
42479;DHT22;28110;47.080;9.476;2023-09-12T13:39:17;25.60;99.90
42479;DHT22;28110;47.080;9.476;2023-09-12T13:41:42;25.50;99.90
42479;DHT22;28110;47.080;9.476;2023-09-12T13:44:09;25.30;99.90
42479;DHT22;28110;47.080;9.476;2023-09-12T13:46:35;25.20;99.90
42479;DHT22;28110;47.080;9.476;2023-09-12T13:49:01;25.20;99.90
42479;DHT22;28110;47.080;9.476;2023-09-12T13:51:29;25.10;99.90
42479;DHT22;28110;47.080;9.476;2023-09-12T13:53:55;25.00;99.90
42479;DHT22;28110;47.080;9.476;2023-09-12T13:56:20;24.90;99.90
42479;DHT22;28110;47.080;9.476;2023-09-12T13:58:46;24.70;99.90
42479;DHT22;28110;47.080;9.476;2023-09-12T14:01:11;24.60;99.90
42479;DHT22;28110;47.080;9.476;2023-09-12T14:03:37;24.40;99.90
42479;DHT22;28110;47.080;9.476;2023-09-12T14:06:03;24.30;99.90
42479;DHT22;28110;47.080;9.476;2023-09-12T14:08:29;24.10;99.90
42479;DHT22;28110;47.080;9.476;2023-09-12T14:10:54;24.00;99.90
42479;DHT22;28110;47.080;9.476;2023-09-12T14:13:20;23.90;99.90
42479;DHT22;28110;47.080;9.476;2023-09-12T14:15:45;23.90;99.90
42479;DHT22;28110;47.080;9.476;2023-09-12T14:18:12;23.80;99.90
42479;DHT22;28110;47.080;9.476;2023-09-12T14:20:37;23.90;99.90
42479;DHT22;28110;47.080;9.476;2023-09-12T14:23:03;24.10;99.90
42479;DHT22;28110;47.080;9.476;2023-09-12T14:25:29;24.20;99.60
42479;DHT22;28110;47.080;9.476;2023-09-12T14:27:54;24.20;98.70
42479;DHT22;28110;47.080;9.476;2023-09-12T14:30:20;24.20;98.20
42479;DHT22;28110;47.080;9.476;2023-09-12T14:32:47;24.20;99.80
42479;DHT22;28110;47.080;9.476;2023-09-12T14:35:13;24.10;99.90
42479;DHT22;28110;47.080;9.476;2023-09-12T14:37:39;24.00;99.90
42479;DHT22;28110;47.080;9.476;2023-09-12T14:40:05;23.90;99.90
42479;DHT22;28110;47.080;9.476;2023-09-12T14:42:31;23.90;98.80
42479;DHT22;28110;47.080;9.476;2023-09-12T14:44:57;24.00;98.50
42479;DHT22;28110;47.080;9.476;2023-09-12T14:47:22;24.00;97.60
42479;DHT22;28110;47.080;9.476;2023-09-12T14:49:49;24.10;97.70
42479;DHT22;28110;47.080;9.476;2023-09-12T14:52:15;24.00;98.20
42479;DHT22;28110;47.080;9.476;2023-09-12T14:54:40;24.00;99.40
42479;DHT22;28110;47.080;9.476;2023-09-12T14:57:06;23.90;99.90
42479;DHT22;28110;47.080;9.476;2023-09-12T14:59:31;23.70;99.90
42479;DHT22;28110;47.080;9.476;2023-09-12T15:01:57;23.40;99.90
42479;DHT22;28110;47.080;9.476;2023-09-12T15:04:22;23.20;99.90
42479;DHT22;28110;47.080;9.476;2023-09-12T15:06:49;23.00;99.90
42479;DHT22;28110;47.080;9.476;2023-09-12T15:09:15;22.70;99.90
42479;DHT22;28110;47.080;9.476;2023-09-12T15:11:40;22.50;99.90
42479;DHT22;28110;47.080;9.476;2023-09-12T15:14:06;22.40;99.90
42479;DHT22;28110;47.080;9.476;2023-09-12T15:16:31;22.30;99.90
42479;DHT22;28110;47.080;9.476;2023-09-12T15:19:00;22.30;99.90
42479;DHT22;28110;47.080;9.476;2023-09-12T15:21:25;22.20;99.90
42479;DHT22;28110;47.080;9.476;2023-09-12T15:23:51;22.30;99.90
42479;DHT22;28110;47.080;9.476;2023-09-12T15:26:16;22.40;99.90
42479;DHT22;28110;47.080;9.476;2023-09-12T15:28:42;22.40;99.90
42479;DHT22;28110;47.080;9.476;2023-09-12T15:31:07;22.50;99.90
42479;DHT22;28110;47.080;9.476;2023-09-12T15:33:33;22.60;99.90
42479;DHT22;28110;47.080;9.476;2023-09-12T15:35:59;22.50;99.90
42479;DHT22;28110;47.080;9.476;2023-09-12T15:38:24;22.60;99.90
42479;DHT22;28110;47.080;9.476;2023-09-12T15:40:50;22.60;99.90
42479;DHT22;28110;47.080;9.476;2023-09-12T15:43:15;22.60;99.90